createdAt,value
2023-04-18T00:04:41.372Z,3.45
2023-04-18T00:09:48.842Z,3.37
2023-04-18T00:14:56.888Z,3.32
2023-04-18T00:20:04.660Z,3.03
2023-04-18T00:25:12.312Z,3.39
2023-04-18T00:30:19.680Z,3.52
2023-04-18T00:35:27.809Z,3.25
2023-04-18T00:40:35.539Z,3.27
2023-04-18T00:45:43.482Z,3.25
2023-04-18T00:50:51.063Z,3.44
2023-04-18T00:55:58.947Z,3.18
2023-04-18T01:01:06.563Z,3.23
2023-04-18T01:06:14.280Z,3.06
2023-04-18T01:11:21.696Z,3.12
2023-04-18T01:16:29.984Z,2.81
2023-04-18T01:21:37.752Z,2.86
2023-04-18T01:26:45.816Z,2.67
2023-04-18T01:31:53.388Z,2.88
2023-04-18T01:37:01.312Z,3.32
2023-04-18T01:42:08.873Z,2.96
2023-04-18T01:47:16.831Z,2.71
2023-04-18T01:52:24.339Z,2.90
2023-04-18T01:57:32.025Z,2.89
2023-04-18T02:02:39.694Z,2.68
2023-04-18T02:07:47.272Z,3.01
2023-04-18T02:12:55.117Z,3.06
2023-04-18T02:18:03.298Z,2.70
2023-04-18T02:23:11.081Z,2.60
2023-04-18T02:28:19.276Z,2.56
2023-04-18T02:33:26.886Z,2.31
2023-04-18T02:38:35.008Z,2.34
2023-04-18T02:43:42.399Z,2.65
2023-04-18T02:48:50.374Z,2.36
2023-04-18T02:53:57.746Z,2.56
2023-04-18T02:59:05.686Z,2.57
2023-04-18T03:04:13.688Z,2.39
2023-04-18T03:09:20.735Z,2.41
2023-04-18T03:14:28.244Z,2.52
2023-04-18T03:19:36.237Z,2.43
2023-04-18T03:24:43.822Z,2.24
2023-04-18T03:29:51.597Z,2.40
2023-04-18T03:34:59.624Z,2.34
2023-04-18T03:40:07.409Z,2.46
2023-04-18T03:45:14.790Z,2.17
2023-04-18T03:50:22.707Z,2.25
2023-04-18T03:55:30.309Z,2.23
2023-04-18T04:00:38.553Z,2.21
2023-04-18T04:05:46.115Z,2.45
2023-04-18T04:10:54.012Z,2.29
2023-04-18T04:16:01.406Z,2.21
2023-04-18T04:21:09.167Z,2.12
2023-04-18T04:26:16.837Z,2.18
2023-04-18T04:31:24.817Z,2.06
2023-04-18T04:36:32.135Z,2.03
2023-04-18T04:41:40.203Z,2.04
2023-04-18T04:46:47.660Z,2.04
2023-04-18T04:51:55.657Z,2.07
2023-04-18T04:57:03.394Z,2.21
2023-04-18T05:02:11.449Z,2.19
2023-04-18T05:07:19.009Z,2.02
2023-04-18T05:12:26.884Z,2.09
2023-04-18T05:17:34.513Z,2.24
2023-04-18T05:22:42.300Z,1.91
2023-04-18T05:27:49.916Z,2.15
2023-04-18T05:32:58.100Z,2.40
2023-04-18T05:38:05.790Z,16.40
2023-04-18T05:43:14.157Z,13.22
2023-04-18T05:48:21.838Z,12.14
2023-04-18T05:53:30.175Z,11.42
2023-04-18T05:58:37.791Z,11.03
2023-04-18T06:03:46.148Z,10.23
2023-04-18T06:08:53.630Z,9.85
2023-04-18T06:14:01.608Z,9.05
2023-04-18T06:19:09.259Z,8.61
2023-04-18T06:24:17.245Z,8.44
2023-04-18T06:29:24.536Z,7.69
2023-04-18T06:34:32.370Z,7.64
2023-04-18T06:39:39.739Z,7.66
2023-04-18T06:44:47.562Z,7.03
2023-04-18T06:49:55.352Z,7.09
2023-04-18T06:55:03.289Z,6.73
2023-04-18T07:00:10.677Z,6.41
2023-04-18T07:05:18.675Z,6.52
2023-04-18T07:10:26.209Z,6.32
2023-04-18T07:15:34.125Z,6.31
2023-04-18T07:20:41.497Z,6.33
2023-04-18T07:25:49.077Z,5.95
2023-04-18T07:30:57.134Z,5.92
2023-04-18T07:36:05.051Z,6.05
2023-04-18T07:41:12.668Z,5.48
2023-04-18T07:46:20.510Z,5.69
2023-04-18T07:51:27.840Z,5.11
2023-04-18T07:56:35.579Z,5.35
2023-04-18T08:01:43.252Z,5.15
2023-04-18T08:06:51.361Z,5.44
2023-04-18T08:11:58.808Z,4.93
2023-04-18T08:17:06.856Z,5.07
2023-04-18T08:22:14.759Z,5.23
2023-04-18T08:27:22.547Z,4.81
2023-04-18T08:32:30.202Z,4.73
2023-04-18T08:37:38.014Z,4.95
2023-04-18T08:42:45.930Z,5.19
2023-04-18T08:47:53.836Z,5.01
2023-04-18T08:53:01.581Z,4.59
2023-04-18T08:58:09.737Z,4.69
2023-04-18T09:03:17.357Z,4.89
2023-04-18T09:08:25.387Z,4.09
2023-04-18T09:13:34.000Z,4.68
2023-04-18T09:18:41.931Z,4.26
2023-04-18T09:23:49.469Z,4.12
2023-04-18T09:28:57.806Z,4.25
2023-04-18T09:34:05.286Z,3.99
2023-04-18T09:39:13.228Z,4.12
2023-04-18T09:44:20.358Z,4.00
2023-04-18T09:49:27.422Z,4.05
2023-04-18T09:54:34.821Z,4.04
2023-04-18T09:59:42.735Z,3.89
2023-04-18T10:04:50.150Z,3.75
2023-04-18T10:09:58.130Z,3.93
2023-04-18T10:15:05.915Z,3.92
2023-04-18T10:20:14.038Z,3.57
2023-04-18T10:25:21.814Z,4.03
2023-04-18T10:30:30.268Z,3.71
2023-04-18T10:35:39.247Z,3.96
2023-04-18T10:40:45.523Z,4.02
2023-04-18T10:45:53.154Z,3.61
2023-04-18T10:51:01.193Z,3.79
2023-04-18T10:56:08.768Z,3.67
2023-04-18T11:01:16.628Z,3.49
2023-04-18T11:06:24.184Z,3.52
2023-04-18T11:11:32.287Z,3.42
2023-04-18T11:16:40.008Z,3.39
2023-04-18T11:21:47.861Z,3.36
2023-04-18T11:26:55.207Z,3.53
2023-04-18T11:32:03.245Z,3.29
2023-04-18T11:37:10.646Z,3.34
2023-04-18T11:42:19.005Z,3.29
2023-04-18T11:47:26.591Z,3.31
2023-04-18T11:52:34.503Z,2.95
2023-04-18T11:57:41.964Z,3.16
2023-04-18T12:02:49.843Z,3.12
2023-04-18T12:07:57.098Z,3.03
2023-04-18T12:13:04.926Z,3.19
2023-04-18T12:18:12.548Z,3.21
2023-04-18T12:23:20.198Z,2.80
2023-04-18T12:28:27.767Z,2.84
2023-04-18T12:33:35.654Z,2.97
2023-04-18T12:38:43.527Z,2.94
2023-04-18T12:43:51.386Z,2.83
2023-04-18T12:48:58.782Z,2.88
2023-04-18T12:54:07.059Z,2.72
2023-04-18T12:59:15.107Z,2.66
2023-04-18T13:04:23.241Z,2.74
2023-04-18T13:09:30.610Z,2.60
2023-04-18T13:14:38.703Z,2.74
2023-04-18T13:24:46.944Z,2.87
2023-04-18T13:29:54.478Z,2.59
2023-04-18T13:35:02.297Z,2.64
2023-04-18T13:40:10.006Z,2.69
2023-04-18T13:45:17.862Z,2.71
2023-04-18T13:50:25.442Z,2.72
2023-04-18T13:55:33.457Z,2.57
2023-04-18T14:00:41.052Z,2.51
2023-04-18T14:05:49.289Z,2.56
2023-04-18T14:10:57.060Z,2.41
2023-04-18T14:16:04.939Z,2.58
2023-04-18T14:21:12.502Z,2.45
2023-04-18T14:26:20.587Z,2.39
2023-04-18T14:31:28.299Z,2.45
2023-04-18T14:36:35.869Z,2.47
2023-04-18T14:41:43.616Z,2.43
2023-04-18T14:46:51.783Z,2.45
2023-04-18T14:51:59.090Z,2.29
2023-04-18T14:57:06.928Z,2.27
2023-04-18T15:02:15.022Z,2.32
2023-04-18T15:07:23.195Z,2.19
2023-04-18T15:12:30.585Z,2.14
2023-04-18T15:17:38.897Z,2.25
2023-04-18T15:22:46.321Z,2.34
2023-04-18T15:27:54.290Z,2.33
2023-04-18T15:33:01.912Z,2.09
2023-04-18T15:38:09.913Z,2.08
2023-04-18T15:43:17.535Z,2.35
2023-04-18T15:48:25.474Z,2.21
2023-04-18T15:53:32.872Z,2.19
2023-04-18T15:58:40.791Z,2.11
2023-04-18T16:03:48.717Z,2.21
2023-04-18T16:08:56.814Z,2.04
2023-04-18T16:14:04.195Z,1.98
2023-04-18T16:19:12.329Z,2.11
2023-04-18T16:24:19.817Z,2.38
2023-04-18T16:29:27.846Z,2.60
2023-04-18T16:34:35.505Z,2.51
2023-04-18T16:39:43.324Z,2.55
2023-04-18T16:44:50.689Z,2.80
2023-04-18T16:49:58.695Z,2.40
2023-04-18T16:55:06.586Z,2.92
2023-04-18T17:00:14.640Z,2.42
2023-04-18T17:05:22.188Z,2.63
2023-04-18T17:10:30.329Z,2.72
2023-04-18T17:15:37.962Z,2.71
2023-04-18T17:20:45.956Z,2.72
2023-04-18T17:25:53.343Z,2.88
2023-04-18T17:31:01.472Z,2.95
2023-04-18T17:36:09.159Z,3.02
2023-04-18T17:41:17.175Z,2.93
2023-04-18T17:46:24.823Z,2.88
2023-04-18T17:51:32.758Z,2.73
2023-04-18T17:56:40.333Z,2.76
2023-04-18T18:01:48.263Z,2.82
2023-04-18T18:06:55.549Z,2.91
2023-04-18T18:12:03.757Z,2.87
2023-04-18T18:17:11.758Z,2.79
2023-04-18T18:22:19.349Z,2.85
2023-04-18T18:27:26.858Z,2.89
2023-04-18T18:32:34.863Z,2.73
2023-04-18T18:37:42.446Z,3.21
2023-04-18T18:42:50.260Z,6.50
2023-04-18T18:47:58.666Z,9.95
2023-04-18T18:53:06.297Z,10.19
2023-04-18T18:58:13.894Z,10.32
2023-04-18T19:03:22.033Z,10.91
2023-04-18T19:08:29.455Z,9.60
2023-04-18T19:13:37.658Z,9.03
2023-04-18T19:18:45.402Z,8.81
2023-04-18T19:23:53.273Z,8.59
2023-04-18T19:29:01.062Z,7.91
2023-04-18T19:34:09.126Z,7.37
2023-04-18T19:39:16.816Z,6.73
2023-04-18T19:44:24.802Z,6.21
2023-04-18T19:49:32.303Z,5.89
2023-04-18T19:54:40.223Z,5.99
2023-04-18T19:59:48.100Z,5.46
2023-04-18T20:04:55.922Z,5.13
2023-04-18T20:10:03.392Z,5.22
2023-04-18T20:15:11.486Z,5.19
2023-04-18T20:20:19.092Z,4.71
2023-04-18T20:25:26.977Z,4.31
2023-04-18T20:30:34.940Z,4.10
2023-04-18T20:35:42.759Z,4.35
2023-04-18T20:40:50.566Z,4.05
2023-04-18T20:45:58.759Z,4.08
2023-04-18T20:51:06.067Z,4.36
2023-04-18T20:56:14.341Z,4.29
2023-04-18T21:01:22.018Z,3.84
2023-04-18T21:06:29.976Z,4.10
2023-04-18T21:11:37.401Z,3.88
2023-04-18T21:16:45.392Z,3.77
2023-04-18T21:21:52.912Z,3.74
2023-04-18T21:27:01.118Z,3.67
2023-04-18T21:32:08.697Z,3.89
2023-04-18T21:37:16.810Z,3.73
2023-04-18T21:42:24.410Z,3.63
2023-04-18T21:47:32.437Z,3.48
2023-04-18T21:52:40.015Z,3.57
2023-04-18T21:57:47.842Z,3.38
2023-04-18T22:02:55.661Z,3.50
2023-04-18T22:08:03.178Z,3.17
2023-04-18T22:13:10.923Z,3.33
2023-04-18T22:18:18.835Z,3.20
2023-04-18T22:23:26.401Z,3.17
2023-04-18T22:28:34.072Z,3.39
2023-04-18T22:33:41.715Z,3.24
2023-04-18T22:38:50.091Z,2.95
2023-04-18T22:43:57.822Z,3.23
2023-04-18T22:49:05.685Z,3.40
2023-04-18T22:54:13.490Z,3.17
2023-04-18T22:59:21.443Z,3.02
2023-04-18T23:04:29.090Z,3.04
2023-04-18T23:09:37.256Z,3.13
2023-04-18T23:14:44.829Z,2.92
2023-04-18T23:19:52.897Z,2.86
2023-04-18T23:25:00.300Z,3.03
2023-04-18T23:30:08.229Z,3.02
2023-04-18T23:35:15.835Z,2.87
2023-04-18T23:40:24.051Z,3.11
2023-04-18T23:45:31.599Z,2.81
2023-04-18T23:50:39.554Z,2.99
2023-04-18T23:55:48.332Z,2.78
